Terminal Aerodrome Forecast
Issued by NWS

Home | Current Version | Previous Version | Text Only | Print | Product List | Glossary On
Versions: 1 2 3 4 5 6 7 8 9 10 11 12 13
000
FTUS45 KVEF 051120
TAFHND
TAF
KHND 051120Z 0512/0612 20006KT P6SM FEW250
     FM051600 17005KT P6SM FEW150 SCT250
     FM052000 20010G20KT P6SM VCSH FEW100 SCT150 BKN200
     FM060300 20010KT P6SM FEW150 SCT200=

USA.gov is the U.S. government's official web portal to all federal, state and local government web resources and services.